< < Back
Terminal Aerodrome Forecast


Current Version              Previous Versions:   1  2  3  4  5  6  7  8  9  

Terminal Aerodrome Forecast

258
FTUS42 KILM 181120
TAFFLO
TAF
KFLO 181120Z 1812/1912 00000KT 3SM -SHRA BR SCT005 BKN025
      TEMPO 1812/1813 2SM BR BKN005
     FM181300 04004KT P6SM VCSH BKN015 OVC025
     FM182100 08004KT P6SM SCT025 BKN040
     FM190200 05003KT P6SM BKN100=

Latest METAR

939
SAUS70 KWBC 181600 RRJ
MTRFLO
METAR KFLO 181553Z 06007KT 10SM SCT015 SCT048 OVC060 24/18 A3001 RMK AO2
SLP158 T02390183


USA.gov is the U.S. government's official web portal to all federal, state and local government web resources and services.